createdAt,value
2018-11-04T00:02:19.095Z,99.90
2018-11-04T00:04:51.084Z,99.90
2018-11-04T00:07:19.576Z,99.90
2018-11-04T00:09:47.788Z,99.90
2018-11-04T00:12:16.061Z,99.90
2018-11-04T00:14:44.359Z,99.90
2018-11-04T00:17:12.648Z,99.90
2018-11-04T00:19:40.903Z,99.90
2018-11-04T00:22:09.102Z,99.90
2018-11-04T00:24:37.324Z,99.90
2018-11-04T00:27:05.615Z,99.90
2018-11-04T00:29:34.184Z,99.90
2018-11-04T00:32:02.418Z,99.90
2018-11-04T00:37:30.738Z,99.90
2018-11-04T00:39:58.990Z,99.90
2018-11-04T00:42:27.244Z,99.90
2018-11-04T00:44:55.504Z,99.90
2018-11-04T00:47:23.714Z,99.90
2018-11-04T00:49:51.968Z,99.90
2018-11-04T00:52:20.338Z,99.90
2018-11-04T00:54:48.533Z,99.90
2018-11-04T00:57:16.759Z,99.90
2018-11-04T00:59:44.928Z,99.90
2018-11-04T01:15:19.886Z,99.90
2018-11-04T01:17:48.241Z,99.90
2018-11-04T01:20:17.071Z,99.90
2018-11-04T01:22:46.773Z,99.90
2018-11-04T01:25:15.067Z,99.90
2018-11-04T01:27:43.347Z,99.90
2018-11-04T01:30:13.908Z,99.90
2018-11-04T01:32:42.212Z,99.90
2018-11-04T01:35:10.541Z,99.90
2018-11-04T01:37:38.803Z,99.90
2018-11-04T01:40:08.025Z,99.90
2018-11-04T01:42:36.393Z,99.90
2018-11-04T01:45:05.643Z,99.90
2018-11-04T01:47:33.881Z,99.90
2018-11-04T01:50:02.098Z,99.90
2018-11-04T01:52:30.302Z,99.90
2018-11-04T01:54:58.526Z,99.90
2018-11-04T01:57:26.773Z,99.90
2018-11-04T01:59:54.967Z,99.90
2018-11-04T02:02:23.216Z,99.90
2018-11-04T02:04:51.429Z,99.90
2018-11-04T02:07:19.662Z,99.90
2018-11-04T02:09:47.883Z,99.90
2018-11-04T02:12:16.119Z,99.90
2018-11-04T02:14:44.355Z,99.90
2018-11-04T02:17:12.558Z,99.90
2018-11-04T02:22:18.984Z,99.90
2018-11-04T02:24:47.224Z,99.90
2018-11-04T02:27:15.406Z,99.90
2018-11-04T02:29:43.676Z,99.90
2018-11-04T02:32:11.840Z,99.90
2018-11-04T02:34:39.999Z,99.90
2018-11-04T02:37:08.239Z,99.90
2018-11-04T02:39:36.493Z,99.90
2018-11-04T02:42:04.826Z,99.90
2018-11-04T02:44:33.004Z,99.90
2018-11-04T02:47:01.278Z,99.90
2018-11-04T02:49:29.318Z,99.90
2018-11-04T02:51:57.527Z,99.90
2018-11-04T02:54:25.786Z,99.90
2018-11-04T02:56:53.940Z,99.90
2018-11-04T02:59:22.151Z,99.90
2018-11-04T03:01:50.403Z,99.90
2018-11-04T03:04:18.607Z,99.90
2018-11-04T03:06:46.930Z,99.90
2018-11-04T03:09:15.200Z,99.90
2018-11-04T03:11:43.417Z,99.90
2018-11-04T03:14:11.771Z,99.90
2018-11-04T03:16:40.016Z,99.90
2018-11-04T03:19:08.312Z,99.90
2018-11-04T03:21:36.553Z,99.90
2018-11-04T03:24:04.829Z,99.90
2018-11-04T03:26:33.191Z,99.90
2018-11-04T03:29:01.494Z,99.90
2018-11-04T03:31:29.731Z,99.90
2018-11-04T03:33:57.905Z,99.90
2018-11-04T03:36:26.112Z,99.90
2018-11-04T03:38:54.363Z,99.90
2018-11-04T03:41:22.552Z,99.90
2018-11-04T03:43:50.940Z,99.90
2018-11-04T03:46:19.272Z,99.90
2018-11-04T03:48:47.500Z,99.90
2018-11-04T03:51:15.695Z,99.90
2018-11-04T03:53:43.894Z,99.90
2018-11-04T03:56:12.068Z,99.90
2018-11-04T03:58:40.340Z,99.90
2018-11-04T04:01:08.539Z,99.90
2018-11-04T04:03:36.788Z,99.90
2018-11-04T04:06:05.412Z,99.90
2018-11-04T04:08:33.699Z,99.90
2018-11-04T04:11:01.888Z,99.90
2018-11-04T04:13:30.129Z,99.90
2018-11-04T04:15:58.311Z,99.90
2018-11-04T04:18:26.549Z,99.90
2018-11-04T04:21:01.187Z,99.90
2018-11-04T04:23:29.369Z,99.90
2018-11-04T04:25:57.561Z,99.90
2018-11-04T04:28:25.746Z,99.90
2018-11-04T04:30:53.978Z,99.90
2018-11-04T04:33:22.118Z,99.90
2018-11-04T04:35:50.289Z,99.90
2018-11-04T04:38:18.546Z,99.90
2018-11-04T04:40:46.724Z,99.90
2018-11-04T04:43:14.892Z,99.90
2018-11-04T04:45:43.068Z,99.90
2018-11-04T04:48:11.242Z,99.90
2018-11-04T04:50:39.391Z,99.90
2018-11-04T04:53:07.867Z,99.90
2018-11-04T04:55:36.136Z,99.90
2018-11-04T04:58:04.445Z,99.90
2018-11-04T05:00:32.675Z,99.90
2018-11-04T05:03:00.912Z,99.90
2018-11-04T05:05:29.398Z,99.90
2018-11-04T05:07:57.654Z,99.90
2018-11-04T05:10:25.835Z,99.90
2018-11-04T05:12:54.065Z,99.90
2018-11-04T05:15:22.235Z,99.90
2018-11-04T05:17:50.508Z,99.90
2018-11-04T05:20:18.713Z,99.90
2018-11-04T05:22:47.432Z,99.90
2018-11-04T05:25:15.757Z,99.90
2018-11-04T05:27:43.961Z,99.90
2018-11-04T05:30:12.612Z,99.90
2018-11-04T05:32:40.791Z,99.90
2018-11-04T05:35:09.033Z,99.90
2018-11-04T05:37:37.917Z,99.90
2018-11-04T05:40:06.693Z,99.90
2018-11-04T05:42:34.962Z,99.90
2018-11-04T05:45:03.457Z,99.90
2018-11-04T05:47:31.743Z,99.90
2018-11-04T05:49:59.960Z,99.90
2018-11-04T05:52:29.151Z,99.90
2018-11-04T05:54:57.383Z,99.90
2018-11-04T05:57:25.680Z,99.90
2018-11-04T05:59:53.909Z,99.90
2018-11-04T06:02:22.163Z,99.90
2018-11-04T06:04:50.386Z,99.90
2018-11-04T06:07:18.602Z,99.90
2018-11-04T06:09:47.017Z,99.90
2018-11-04T06:12:15.356Z,99.90
2018-11-04T06:14:43.888Z,99.90
2018-11-04T06:17:12.115Z,99.90
2018-11-04T06:19:40.410Z,99.90
2018-11-04T06:22:08.687Z,99.90
2018-11-04T06:24:36.908Z,99.90
2018-11-04T06:27:05.231Z,99.90
2018-11-04T06:29:33.516Z,99.90
2018-11-04T06:32:01.734Z,99.90
2018-11-04T06:34:29.988Z,99.90
2018-11-04T06:36:59.992Z,99.90
2018-11-04T06:39:28.525Z,99.90
2018-11-04T06:41:56.962Z,99.90
2018-11-04T06:44:25.153Z,99.90
2018-11-04T06:46:53.461Z,99.90
2018-11-04T06:49:21.746Z,99.90
2018-11-04T06:51:49.961Z,99.90
2018-11-04T06:54:18.350Z,99.90
2018-11-04T06:56:46.623Z,99.90
2018-11-04T06:59:14.987Z,99.90
2018-11-04T07:01:43.280Z,99.90
2018-11-04T07:04:19.023Z,99.90
2018-11-04T07:06:47.416Z,99.90
2018-11-04T07:09:16.086Z,99.90
2018-11-04T07:11:44.871Z,99.90
2018-11-04T07:14:13.056Z,99.90
2018-11-04T07:16:41.210Z,99.90
2018-11-04T07:19:09.487Z,99.90
2018-11-04T07:21:38.063Z,99.90
2018-11-04T07:24:06.764Z,99.90
2018-11-04T07:26:35.782Z,99.90
2018-11-04T07:29:04.334Z,99.90
2018-11-04T07:31:32.550Z,99.90
2018-11-04T07:34:00.767Z,99.90
2018-11-04T07:36:29.100Z,99.90
2018-11-04T07:38:57.344Z,99.90
2018-11-04T07:41:25.515Z,99.90
2018-11-04T07:43:53.723Z,99.90
2018-11-04T07:49:31.853Z,99.90
2018-11-04T07:52:02.037Z,99.90
2018-11-04T07:54:31.592Z,99.90
2018-11-04T07:57:03.039Z,99.90
2018-11-04T07:59:31.687Z,99.90
2018-11-04T08:01:59.814Z,99.90
2018-11-04T08:37:55.694Z,99.90
2018-11-04T09:56:49.464Z,99.90
2018-11-04T09:59:18.374Z,99.90
2018-11-04T10:01:47.612Z,99.90
2018-11-04T10:04:17.089Z,99.90
2018-11-04T11:31:47.557Z,99.90
2018-11-04T11:34:15.932Z,99.90
2018-11-04T11:36:44.332Z,99.90
2018-11-04T11:39:13.956Z,99.90
2018-11-04T11:41:42.836Z,99.90
2018-11-04T11:44:11.066Z,99.90
2018-11-04T11:46:39.483Z,99.90
2018-11-04T11:49:08.142Z,99.90
2018-11-04T11:51:39.194Z,99.90
2018-11-04T11:54:08.292Z,99.90
2018-11-04T11:56:36.559Z,99.90
2018-11-04T11:59:11.314Z,99.60
2018-11-04T12:01:39.500Z,99.10
2018-11-04T12:04:07.683Z,99.00
2018-11-04T12:06:35.926Z,99.30
2018-11-04T12:09:05.351Z,97.30
2018-11-04T12:11:33.596Z,96.60
2018-11-04T12:14:02.314Z,96.30
2018-11-04T12:16:30.918Z,95.70
2018-11-04T12:18:59.554Z,94.60
2018-11-04T12:21:27.960Z,94.30
2018-11-04T12:26:57.556Z,93.80
2018-11-04T12:29:30.901Z,92.40
2018-11-04T12:31:59.159Z,92.20
2018-11-04T12:34:27.329Z,92.10
2018-11-04T12:36:55.482Z,92.50
2018-11-04T12:39:23.618Z,92.00
2018-11-04T12:41:51.774Z,92.10
2018-11-04T12:44:20.017Z,92.20
2018-11-04T12:46:48.178Z,90.90
2018-11-04T12:49:16.322Z,91.30
2018-11-04T12:51:44.464Z,91.10
2018-11-04T12:54:12.853Z,90.30
2018-11-04T12:56:41.040Z,90.30
2018-11-04T12:59:09.166Z,90.00
2018-11-04T13:01:37.334Z,89.80
2018-11-04T13:04:05.479Z,89.10
2018-11-04T13:06:33.636Z,88.30
2018-11-04T13:09:01.808Z,89.80
2018-11-04T13:11:30.050Z,89.80
2018-11-04T13:13:58.121Z,90.20
2018-11-04T13:16:26.299Z,90.80
2018-11-04T13:18:54.458Z,90.90
2018-11-04T13:21:22.826Z,91.00
2018-11-04T13:23:50.892Z,91.20
2018-11-04T13:26:19.046Z,91.20
2018-11-04T13:28:47.255Z,91.80
2018-11-04T13:31:15.431Z,91.90
2018-11-04T13:33:43.651Z,92.10
2018-11-04T13:36:11.944Z,91.30
2018-11-04T13:38:40.015Z,91.40
2018-11-04T13:41:08.156Z,91.20
2018-11-04T13:43:36.290Z,91.10
2018-11-04T13:46:04.446Z,91.10
2018-11-04T13:48:32.605Z,91.90
2018-11-04T13:51:00.773Z,91.60
2018-11-04T13:53:28.927Z,91.30
2018-11-04T13:55:57.065Z,91.30
2018-11-04T13:58:25.225Z,92.00
2018-11-04T14:00:53.393Z,92.20
2018-11-04T14:03:21.538Z,92.70
2018-11-04T14:05:49.691Z,93.10
2018-11-04T14:08:17.994Z,93.50
2018-11-04T14:10:46.174Z,93.20
2018-11-04T14:13:14.343Z,93.20
2018-11-04T14:15:42.462Z,93.10
2018-11-04T14:18:10.614Z,93.60
2018-11-04T14:20:38.757Z,94.00
2018-11-04T14:23:06.899Z,94.30
2018-11-04T14:25:35.047Z,94.90
2018-11-04T14:28:03.198Z,94.90
2018-11-04T14:30:31.356Z,95.10
2018-11-04T14:32:59.522Z,95.50
2018-11-04T14:35:27.755Z,95.60
2018-11-04T14:37:55.938Z,95.70
2018-11-04T14:40:24.294Z,95.70
2018-11-04T14:42:52.494Z,95.60
2018-11-04T14:45:20.693Z,96.10
2018-11-04T14:47:48.870Z,96.60
2018-11-04T14:50:18.548Z,96.90
2018-11-04T14:52:47.274Z,97.00
2018-11-04T14:55:15.385Z,97.50
2018-11-04T14:57:43.591Z,97.80
2018-11-04T15:00:14.210Z,98.10
2018-11-04T15:02:42.374Z,98.30
2018-11-04T15:05:11.162Z,98.50
2018-11-04T15:07:39.516Z,98.80
2018-11-04T15:10:09.368Z,99.10
2018-11-04T15:12:37.554Z,99.20
2018-11-04T15:15:07.547Z,99.60
2018-11-04T15:17:35.717Z,99.80
2018-11-04T15:20:04.007Z,99.90
2018-11-04T15:22:32.239Z,99.90
2018-11-04T15:25:00.386Z,99.90
2018-11-04T15:27:28.544Z,99.90
2018-11-04T15:29:56.757Z,99.90
2018-11-04T15:32:24.912Z,99.90
2018-11-04T15:34:53.174Z,99.90
2018-11-04T15:37:21.258Z,99.90
2018-11-04T15:39:49.399Z,99.90
2018-11-04T15:42:17.545Z,99.90
2018-11-04T15:44:45.702Z,99.90
2018-11-04T15:47:13.860Z,99.90
2018-11-04T15:49:42.134Z,99.90
2018-11-04T15:52:10.273Z,99.90
2018-11-04T15:54:38.442Z,99.90
2018-11-04T15:57:12.272Z,99.90
2018-11-04T15:59:41.058Z,99.90
2018-11-04T16:02:09.349Z,99.90
2018-11-04T16:04:44.541Z,99.90
2018-11-04T16:07:05.981Z,99.90
2018-11-04T16:09:34.182Z,99.90
2018-11-04T16:12:02.485Z,99.90
2018-11-04T16:14:30.753Z,99.90
2018-11-04T16:16:59.006Z,99.90
2018-11-04T16:19:27.213Z,99.90
2018-11-04T16:21:55.453Z,99.90
2018-11-04T16:24:23.646Z,99.90
2018-11-04T16:26:51.795Z,99.90
2018-11-04T16:29:19.986Z,99.90
2018-11-04T16:31:48.169Z,99.90
2018-11-04T16:34:16.270Z,99.90
2018-11-04T16:36:44.454Z,99.90
2018-11-04T16:39:12.604Z,99.90
2018-11-04T16:41:40.855Z,99.90
2018-11-04T16:44:13.748Z,99.90
2018-11-04T16:46:41.885Z,99.90
2018-11-04T16:49:10.115Z,99.90
2018-11-04T16:51:38.859Z,99.90
2018-11-04T16:54:07.414Z,99.90
2018-11-04T16:56:35.786Z,99.90
2018-11-04T16:59:04.246Z,99.90
2018-11-04T17:01:32.398Z,99.90
2018-11-04T17:04:00.573Z,99.90
2018-11-04T17:06:28.737Z,99.90
2018-11-04T17:08:56.873Z,99.90
2018-11-04T17:11:25.034Z,99.90
2018-11-04T17:13:53.135Z,99.90
2018-11-04T17:16:21.262Z,99.90
2018-11-04T17:18:49.519Z,99.90
2018-11-04T17:21:17.673Z,99.90
2018-11-04T17:23:45.889Z,99.90
2018-11-04T17:26:14.029Z,99.90
2018-11-04T17:28:42.210Z,99.90
2018-11-04T17:31:10.355Z,99.90
2018-11-04T17:33:38.588Z,99.90
2018-11-04T17:36:06.762Z,99.90
2018-11-04T17:38:34.876Z,99.90
2018-11-04T17:41:03.000Z,99.90
2018-11-04T17:43:31.167Z,99.90
2018-11-04T17:45:59.306Z,99.90
2018-11-04T17:48:27.481Z,99.90
2018-11-04T17:50:55.611Z,99.90
2018-11-04T17:53:23.807Z,99.90
2018-11-04T17:55:51.902Z,99.90
2018-11-04T17:58:20.066Z,99.90
2018-11-04T18:00:48.203Z,99.90
2018-11-04T18:03:16.336Z,99.90
2018-11-04T18:05:44.489Z,99.90
2018-11-04T18:08:12.651Z,99.90
2018-11-04T18:10:40.802Z,99.90
2018-11-04T18:13:08.949Z,99.90
2018-11-04T18:15:37.105Z,99.90
2018-11-04T18:18:05.452Z,99.90
2018-11-04T18:20:33.606Z,99.90
2018-11-04T18:23:01.748Z,99.90
2018-11-04T18:25:29.955Z,99.90
2018-11-04T18:27:58.109Z,99.90
2018-11-04T18:30:26.339Z,99.90
2018-11-04T18:32:54.636Z,99.90
2018-11-04T18:35:22.822Z,99.90
2018-11-04T18:37:51.014Z,99.90
2018-11-04T18:40:19.712Z,99.90
2018-11-04T18:42:47.885Z,99.90
2018-11-04T18:45:16.867Z,99.90
2018-11-04T18:47:45.195Z,99.90
2018-11-04T18:50:14.397Z,99.90
2018-11-04T18:52:42.574Z,99.90
2018-11-04T18:55:11.724Z,99.90
2018-11-04T18:57:40.421Z,99.90
2018-11-04T19:00:10.923Z,99.90
2018-11-04T19:02:39.209Z,99.90
2018-11-04T19:05:07.899Z,99.90
2018-11-04T19:07:36.223Z,99.90
2018-11-04T19:10:05.337Z,99.90
2018-11-04T19:12:33.534Z,99.90
2018-11-04T19:15:01.690Z,99.90
2018-11-04T19:17:29.826Z,99.90
2018-11-04T19:19:57.978Z,99.90
2018-11-04T19:22:26.108Z,99.90
2018-11-04T19:24:54.285Z,99.90
2018-11-04T19:27:22.426Z,99.90
2018-11-04T19:29:50.559Z,99.90
2018-11-04T19:32:18.731Z,99.90
2018-11-04T19:34:46.853Z,99.90
2018-11-04T19:37:15.221Z,99.90
2018-11-04T19:39:43.306Z,99.90
2018-11-04T19:42:11.458Z,99.90
2018-11-04T19:44:39.599Z,99.90
2018-11-04T19:47:07.982Z,99.90
2018-11-04T19:49:36.127Z,99.90
2018-11-04T19:52:04.310Z,99.90
2018-11-04T19:54:32.702Z,99.90
2018-11-04T19:57:00.813Z,99.90
2018-11-04T19:59:28.970Z,99.90
2018-11-04T20:01:57.086Z,99.90
2018-11-04T20:04:25.224Z,99.90
2018-11-04T20:06:53.387Z,99.90
2018-11-04T20:09:21.519Z,99.90
2018-11-04T20:11:49.657Z,99.90
2018-11-04T20:14:20.226Z,99.90
2018-11-04T20:16:49.418Z,99.90
2018-11-04T20:19:23.117Z,99.90
2018-11-04T20:21:51.914Z,99.90
2018-11-04T20:24:25.577Z,99.90
2018-11-04T20:26:53.699Z,99.90
2018-11-04T20:29:21.842Z,99.90
2018-11-04T20:31:55.531Z,99.90
2018-11-04T20:34:23.708Z,99.90
2018-11-04T20:36:51.965Z,99.90
2018-11-04T20:39:25.467Z,99.90
2018-11-04T20:41:53.610Z,99.90
2018-11-04T20:44:21.725Z,99.90
2018-11-04T20:46:49.865Z,99.90
2018-11-04T20:49:23.406Z,99.90
2018-11-04T20:51:51.589Z,99.90
2018-11-04T20:54:19.661Z,99.90
2018-11-04T20:56:53.212Z,99.90
2018-11-04T20:59:21.385Z,99.90
2018-11-04T21:01:49.580Z,99.90
2018-11-04T21:04:17.639Z,99.90
2018-11-04T21:06:45.814Z,99.90
2018-11-04T21:09:14.218Z,99.90
2018-11-04T21:11:42.374Z,99.90
2018-11-04T21:14:10.506Z,99.90
2018-11-04T21:16:38.730Z,99.90
2018-11-04T21:19:06.771Z,99.90
2018-11-04T21:21:34.972Z,99.90
2018-11-04T21:24:03.084Z,99.90
2018-11-04T21:26:31.217Z,99.90
2018-11-04T21:28:59.417Z,99.90
2018-11-04T21:31:27.522Z,99.90
2018-11-04T21:33:55.635Z,99.90
2018-11-04T21:36:25.391Z,99.90
2018-11-04T21:38:53.555Z,99.90
2018-11-04T21:41:21.698Z,99.90
2018-11-04T21:43:50.027Z,99.90
2018-11-04T21:46:17.962Z,99.90
2018-11-04T21:48:46.255Z,99.90
2018-11-04T21:51:14.605Z,99.90
2018-11-04T21:53:42.775Z,99.90
2018-11-04T21:56:11.184Z,99.90
2018-11-04T21:58:39.209Z,99.90
2018-11-04T22:01:07.495Z,99.90
2018-11-04T22:03:35.736Z,99.90
2018-11-04T22:06:03.779Z,99.90
2018-11-04T22:08:31.928Z,99.90
2018-11-04T22:11:00.042Z,99.90
2018-11-04T22:13:28.184Z,99.90
2018-11-04T22:15:56.324Z,99.90
2018-11-04T22:18:24.432Z,99.90
2018-11-04T22:20:52.563Z,99.90
2018-11-04T22:23:20.699Z,99.90
2018-11-04T22:25:48.835Z,99.90
2018-11-04T22:28:16.971Z,99.90
2018-11-04T22:30:45.106Z,99.90
2018-11-04T22:33:13.214Z,99.90
2018-11-04T22:35:41.347Z,99.90
2018-11-04T22:38:09.478Z,99.90
2018-11-04T22:40:37.597Z,99.90
2018-11-04T22:43:05.774Z,99.90
2018-11-04T22:45:33.918Z,99.90
2018-11-04T22:48:02.171Z,99.90
2018-11-04T22:50:30.289Z,99.90
2018-11-04T22:52:58.463Z,99.90
2018-11-04T22:55:26.587Z,99.90
2018-11-04T22:57:58.979Z,99.90
2018-11-04T23:00:32.382Z,99.90
2018-11-04T23:03:00.548Z,99.90
2018-11-04T23:05:28.726Z,99.90
2018-11-04T23:07:56.853Z,99.90
2018-11-04T23:10:24.986Z,99.90
2018-11-04T23:12:53.139Z,99.90
2018-11-04T23:15:21.260Z,99.90
2018-11-04T23:17:49.419Z,99.90
2018-11-04T23:20:17.691Z,99.90
2018-11-04T23:22:45.821Z,99.90
2018-11-04T23:25:14.660Z,99.90
2018-11-04T23:27:43.455Z,99.90
2018-11-04T23:30:13.923Z,99.90
2018-11-04T23:32:42.482Z,99.90
2018-11-04T23:35:11.358Z,99.90
2018-11-04T23:37:39.627Z,99.90
2018-11-04T23:40:08.112Z,99.90
2018-11-04T23:42:36.494Z,99.90
2018-11-04T23:45:05.023Z,99.90
2018-11-04T23:47:33.155Z,99.90
2018-11-04T23:50:01.292Z,99.90
2018-11-04T23:52:29.417Z,99.90
2018-11-04T23:54:57.565Z,99.90
2018-11-04T23:57:25.717Z,99.90
2018-11-04T23:59:53.837Z,99.90
